sensor_id;sensor_type;location;lat;lon;timestamp;temperature;humidity
13245;DHT22;6689;53.400;12.486;2024-02-26T00:02:27;3.50;99.90
13245;DHT22;6689;53.400;12.486;2024-02-26T00:04:56;3.40;99.90
13245;DHT22;6689;53.400;12.486;2024-02-26T00:07:23;3.30;99.90
13245;DHT22;6689;53.400;12.486;2024-02-26T00:09:51;3.30;99.90
13245;DHT22;6689;53.400;12.486;2024-02-26T00:12:18;3.30;99.90
13245;DHT22;6689;53.400;12.486;2024-02-26T00:14:48;3.30;99.90
13245;DHT22;6689;53.400;12.486;2024-02-26T00:17:16;3.20;99.90
13245;DHT22;6689;53.400;12.486;2024-02-26T00:19:43;3.20;99.90
13245;DHT22;6689;53.400;12.486;2024-02-26T00:22:13;3.20;99.90
13245;DHT22;6689;53.400;12.486;2024-02-26T00:24:40;3.20;99.90
13245;DHT22;6689;53.400;12.486;2024-02-26T00:27:09;3.20;99.90
13245;DHT22;6689;53.400;12.486;2024-02-26T00:29:36;3.30;99.90
13245;DHT22;6689;53.400;12.486;2024-02-26T00:32:04;3.40;99.90
13245;DHT22;6689;53.400;12.486;2024-02-26T00:34:31;3.10;99.90
13245;DHT22;6689;53.400;12.486;2024-02-26T00:36:58;3.10;99.90
13245;DHT22;6689;53.400;12.486;2024-02-26T00:39:27;3.00;99.90
13245;DHT22;6689;53.400;12.486;2024-02-26T00:41:54;3.00;99.90
13245;DHT22;6689;53.400;12.486;2024-02-26T00:44:22;3.20;99.90
13245;DHT22;6689;53.400;12.486;2024-02-26T00:46:50;3.00;99.90
13245;DHT22;6689;53.400;12.486;2024-02-26T00:49:17;3.00;99.90
13245;DHT22;6689;53.400;12.486;2024-02-26T00:51:45;2.90;99.90
13245;DHT22;6689;53.400;12.486;2024-02-26T00:54:12;2.90;99.90
13245;DHT22;6689;53.400;12.486;2024-02-26T00:56:41;2.80;99.90
13245;DHT22;6689;53.400;12.486;2024-02-26T00:59:08;2.80;99.90
13245;DHT22;6689;53.400;12.486;2024-02-26T01:01:36;2.70;99.90
13245;DHT22;6689;53.400;12.486;2024-02-26T01:04:05;2.80;99.90
13245;DHT22;6689;53.400;12.486;2024-02-26T01:06:32;2.80;99.90
13245;DHT22;6689;53.400;12.486;2024-02-26T01:08:59;2.80;99.90
13245;DHT22;6689;53.400;12.486;2024-02-26T01:11:26;2.70;99.90
13245;DHT22;6689;53.400;12.486;2024-02-26T01:13:56;2.70;99.90
13245;DHT22;6689;53.400;12.486;2024-02-26T01:16:24;2.70;99.90
13245;DHT22;6689;53.400;12.486;2024-02-26T01:18:51;2.70;99.90
13245;DHT22;6689;53.400;12.486;2024-02-26T01:21:18;2.70;99.90
13245;DHT22;6689;53.400;12.486;2024-02-26T01:23:45;2.70;99.90
13245;DHT22;6689;53.400;12.486;2024-02-26T01:26:12;2.70;99.90
13245;DHT22;6689;53.400;12.486;2024-02-26T01:28:40;2.70;99.90
13245;DHT22;6689;53.400;12.486;2024-02-26T01:31:11;2.60;99.90
13245;DHT22;6689;53.400;12.486;2024-02-26T01:33:38;2.70;99.90
13245;DHT22;6689;53.400;12.486;2024-02-26T01:36:08;2.60;99.90
13245;DHT22;6689;53.400;12.486;2024-02-26T01:38:35;2.60;99.90
13245;DHT22;6689;53.400;12.486;2024-02-26T01:41:03;2.60;99.90
13245;DHT22;6689;53.400;12.486;2024-02-26T01:43:30;2.60;99.90
13245;DHT22;6689;53.400;12.486;2024-02-26T01:45:58;2.50;99.90
13245;DHT22;6689;53.400;12.486;2024-02-26T01:48:27;2.50;99.90
13245;DHT22;6689;53.400;12.486;2024-02-26T01:50:54;2.50;99.90
13245;DHT22;6689;53.400;12.486;2024-02-26T01:53:22;2.50;99.90
13245;DHT22;6689;53.400;12.486;2024-02-26T01:55:50;2.50;99.90
13245;DHT22;6689;53.400;12.486;2024-02-26T01:58:17;2.40;99.90
13245;DHT22;6689;53.400;12.486;2024-02-26T02:00:44;2.40;99.90
13245;DHT22;6689;53.400;12.486;2024-02-26T02:03:12;2.30;99.90
13245;DHT22;6689;53.400;12.486;2024-02-26T02:05:41;2.20;99.90
13245;DHT22;6689;53.400;12.486;2024-02-26T02:08:11;2.20;99.90
13245;DHT22;6689;53.400;12.486;2024-02-26T02:10:38;2.20;99.90
13245;DHT22;6689;53.400;12.486;2024-02-26T02:13:07;2.30;99.90
13245;DHT22;6689;53.400;12.486;2024-02-26T02:15:34;2.30;99.90
13245;DHT22;6689;53.400;12.486;2024-02-26T02:18:03;2.30;99.90
13245;DHT22;6689;53.400;12.486;2024-02-26T02:20:33;2.30;99.90
13245;DHT22;6689;53.400;12.486;2024-02-26T02:23:01;2.30;99.90
13245;DHT22;6689;53.400;12.486;2024-02-26T02:25:28;2.30;99.90
13245;DHT22;6689;53.400;12.486;2024-02-26T02:27:56;2.30;99.90
13245;DHT22;6689;53.400;12.486;2024-02-26T02:30:26;2.20;99.90
13245;DHT22;6689;53.400;12.486;2024-02-26T02:32:55;2.20;99.90
13245;DHT22;6689;53.400;12.486;2024-02-26T02:35:25;2.20;99.90
13245;DHT22;6689;53.400;12.486;2024-02-26T02:37:55;2.20;99.90
13245;DHT22;6689;53.400;12.486;2024-02-26T02:40:22;2.20;99.90
13245;DHT22;6689;53.400;12.486;2024-02-26T02:42:49;2.10;99.90
13245;DHT22;6689;53.400;12.486;2024-02-26T02:45:17;2.10;99.90
13245;DHT22;6689;53.400;12.486;2024-02-26T02:47:44;2.10;99.90
13245;DHT22;6689;53.400;12.486;2024-02-26T02:50:13;2.10;99.90
13245;DHT22;6689;53.400;12.486;2024-02-26T02:52:41;2.10;99.90
13245;DHT22;6689;53.400;12.486;2024-02-26T02:55:09;2.10;99.90
13245;DHT22;6689;53.400;12.486;2024-02-26T02:57:37;2.10;99.90
13245;DHT22;6689;53.400;12.486;2024-02-26T03:00:08;2.10;99.90
13245;DHT22;6689;53.400;12.486;2024-02-26T03:02:35;2.10;99.90
13245;DHT22;6689;53.400;12.486;2024-02-26T03:05:03;2.00;99.90
13245;DHT22;6689;53.400;12.486;2024-02-26T03:07:30;1.70;99.90
13245;DHT22;6689;53.400;12.486;2024-02-26T03:09:59;2.10;99.90
13245;DHT22;6689;53.400;12.486;2024-02-26T03:12:30;2.00;99.90
13245;DHT22;6689;53.400;12.486;2024-02-26T03:14:57;1.90;99.90
13245;DHT22;6689;53.400;12.486;2024-02-26T03:17:28;1.80;99.90
13245;DHT22;6689;53.400;12.486;2024-02-26T03:19:55;1.90;99.90
13245;DHT22;6689;53.400;12.486;2024-02-26T03:22:23;1.90;99.90
13245;DHT22;6689;53.400;12.486;2024-02-26T03:24:50;1.90;99.90
13245;DHT22;6689;53.400;12.486;2024-02-26T03:27:17;1.90;99.90
13245;DHT22;6689;53.400;12.486;2024-02-26T03:29:46;1.80;99.90
13245;DHT22;6689;53.400;12.486;2024-02-26T03:32:13;1.80;99.90
13245;DHT22;6689;53.400;12.486;2024-02-26T03:34:40;1.80;99.90
13245;DHT22;6689;53.400;12.486;2024-02-26T03:37:08;1.80;99.90
13245;DHT22;6689;53.400;12.486;2024-02-26T03:39:38;1.80;99.90
13245;DHT22;6689;53.400;12.486;2024-02-26T03:42:05;1.80;99.90
13245;DHT22;6689;53.400;12.486;2024-02-26T03:44:33;1.80;99.90
13245;DHT22;6689;53.400;12.486;2024-02-26T03:47:01;1.80;99.90
13245;DHT22;6689;53.400;12.486;2024-02-26T03:49:29;1.80;99.90
13245;DHT22;6689;53.400;12.486;2024-02-26T03:51:56;1.70;99.90
13245;DHT22;6689;53.400;12.486;2024-02-26T03:54:23;1.70;99.90
13245;DHT22;6689;53.400;12.486;2024-02-26T03:56:50;1.70;99.90
13245;DHT22;6689;53.400;12.486;2024-02-26T03:59:18;1.70;99.90
13245;DHT22;6689;53.400;12.486;2024-02-26T04:01:46;1.90;99.90
13245;DHT22;6689;53.400;12.486;2024-02-26T04:04:15;1.80;99.90
13245;DHT22;6689;53.400;12.486;2024-02-26T04:06:44;1.70;99.90
13245;DHT22;6689;53.400;12.486;2024-02-26T04:09:14;1.70;99.90
13245;DHT22;6689;53.400;12.486;2024-02-26T04:11:41;1.70;99.90
13245;DHT22;6689;53.400;12.486;2024-02-26T04:14:09;1.70;99.90
13245;DHT22;6689;53.400;12.486;2024-02-26T04:16:38;1.60;99.90
13245;DHT22;6689;53.400;12.486;2024-02-26T04:19:05;1.60;99.90
13245;DHT22;6689;53.400;12.486;2024-02-26T04:21:34;1.50;99.90
13245;DHT22;6689;53.400;12.486;2024-02-26T04:24:02;1.50;99.90
13245;DHT22;6689;53.400;12.486;2024-02-26T04:26:30;1.50;99.90
13245;DHT22;6689;53.400;12.486;2024-02-26T04:28:57;1.50;99.90
13245;DHT22;6689;53.400;12.486;2024-02-26T04:31:25;1.80;99.90
13245;DHT22;6689;53.400;12.486;2024-02-26T04:33:53;1.50;99.90
13245;DHT22;6689;53.400;12.486;2024-02-26T04:36:20;1.40;99.90
13245;DHT22;6689;53.400;12.486;2024-02-26T04:38:49;1.40;99.90
13245;DHT22;6689;53.400;12.486;2024-02-26T04:41:16;1.30;99.90
13245;DHT22;6689;53.400;12.486;2024-02-26T04:43:43;1.40;99.90
13245;DHT22;6689;53.400;12.486;2024-02-26T04:46:10;1.30;99.90
13245;DHT22;6689;53.400;12.486;2024-02-26T04:48:38;1.30;99.90
13245;DHT22;6689;53.400;12.486;2024-02-26T04:51:07;1.40;99.90
13245;DHT22;6689;53.400;12.486;2024-02-26T04:53:35;1.40;99.90
13245;DHT22;6689;53.400;12.486;2024-02-26T04:56:05;1.40;99.90
13245;DHT22;6689;53.400;12.486;2024-02-26T04:58:32;1.40;99.90
13245;DHT22;6689;53.400;12.486;2024-02-26T05:01:00;1.40;99.90
13245;DHT22;6689;53.400;12.486;2024-02-26T05:03:27;1.40;99.90
13245;DHT22;6689;53.400;12.486;2024-02-26T05:05:54;1.40;99.90
13245;DHT22;6689;53.400;12.486;2024-02-26T05:08:23;1.40;99.90
13245;DHT22;6689;53.400;12.486;2024-02-26T05:10:52;1.50;1.00
13245;DHT22;6689;53.400;12.486;2024-02-26T05:13:21;1.40;1.00
13245;DHT22;6689;53.400;12.486;2024-02-26T05:15:48;1.40;1.00
13245;DHT22;6689;53.400;12.486;2024-02-26T05:18:20;1.40;1.00
13245;DHT22;6689;53.400;12.486;2024-02-26T05:20:47;1.40;1.00
13245;DHT22;6689;53.400;12.486;2024-02-26T05:23:15;1.40;1.00
13245;DHT22;6689;53.400;12.486;2024-02-26T05:25:44;1.40;1.00
13245;DHT22;6689;53.400;12.486;2024-02-26T05:28:13;1.40;1.00
13245;DHT22;6689;53.400;12.486;2024-02-26T05:30:44;1.40;1.00
13245;DHT22;6689;53.400;12.486;2024-02-26T05:33:11;1.30;1.00
13245;DHT22;6689;53.400;12.486;2024-02-26T05:35:38;1.30;1.00
13245;DHT22;6689;53.400;12.486;2024-02-26T05:38:07;1.30;1.00
13245;DHT22;6689;53.400;12.486;2024-02-26T05:40:35;1.30;1.00
13245;DHT22;6689;53.400;12.486;2024-02-26T05:43:02;1.40;1.00
13245;DHT22;6689;53.400;12.486;2024-02-26T05:45:29;1.30;1.00
13245;DHT22;6689;53.400;12.486;2024-02-26T05:47:58;1.50;1.00
13245;DHT22;6689;53.400;12.486;2024-02-26T05:50:26;1.30;1.00
13245;DHT22;6689;53.400;12.486;2024-02-26T05:52:53;1.30;1.00
13245;DHT22;6689;53.400;12.486;2024-02-26T05:55:21;1.30;1.00
13245;DHT22;6689;53.400;12.486;2024-02-26T05:57:49;1.30;1.00
13245;DHT22;6689;53.400;12.486;2024-02-26T06:00:17;1.40;1.00
13245;DHT22;6689;53.400;12.486;2024-02-26T06:02:45;1.30;1.00
13245;DHT22;6689;53.400;12.486;2024-02-26T06:05:13;1.30;1.00
13245;DHT22;6689;53.400;12.486;2024-02-26T06:07:41;1.30;1.00
13245;DHT22;6689;53.400;12.486;2024-02-26T06:10:10;1.30;1.00
13245;DHT22;6689;53.400;12.486;2024-02-26T06:12:41;1.30;1.00
13245;DHT22;6689;53.400;12.486;2024-02-26T06:15:09;1.20;1.00
13245;DHT22;6689;53.400;12.486;2024-02-26T06:17:36;1.20;1.00
13245;DHT22;6689;53.400;12.486;2024-02-26T06:20:04;1.20;1.00
13245;DHT22;6689;53.400;12.486;2024-02-26T06:22:33;1.20;1.00
13245;DHT22;6689;53.400;12.486;2024-02-26T06:25:00;1.30;1.00
13245;DHT22;6689;53.400;12.486;2024-02-26T06:27:29;1.30;1.00
13245;DHT22;6689;53.400;12.486;2024-02-26T06:29:58;1.30;1.00
13245;DHT22;6689;53.400;12.486;2024-02-26T06:32:25;1.40;1.00
13245;DHT22;6689;53.400;12.486;2024-02-26T06:34:55;1.40;1.00
13245;DHT22;6689;53.400;12.486;2024-02-26T06:37:22;1.40;1.00
13245;DHT22;6689;53.400;12.486;2024-02-26T06:39:51;1.40;1.00
13245;DHT22;6689;53.400;12.486;2024-02-26T06:42:18;1.40;1.00
13245;DHT22;6689;53.400;12.486;2024-02-26T06:44:45;1.50;1.00
13245;DHT22;6689;53.400;12.486;2024-02-26T06:47:12;1.50;1.00
13245;DHT22;6689;53.400;12.486;2024-02-26T06:49:44;1.50;1.00
13245;DHT22;6689;53.400;12.486;2024-02-26T06:52:11;1.60;1.00
13245;DHT22;6689;53.400;12.486;2024-02-26T06:54:38;1.70;1.00
13245;DHT22;6689;53.400;12.486;2024-02-26T06:57:06;1.70;1.00
13245;DHT22;6689;53.400;12.486;2024-02-26T06:59:34;1.80;1.00
13245;DHT22;6689;53.400;12.486;2024-02-26T07:02:01;1.80;1.00
13245;DHT22;6689;53.400;12.486;2024-02-26T07:04:28;1.90;1.00
13245;DHT22;6689;53.400;12.486;2024-02-26T07:06:57;1.90;1.00
13245;DHT22;6689;53.400;12.486;2024-02-26T07:09:24;2.00;1.00
13245;DHT22;6689;53.400;12.486;2024-02-26T07:11:51;2.00;1.00
13245;DHT22;6689;53.400;12.486;2024-02-26T07:14:20;2.10;1.00
13245;DHT22;6689;53.400;12.486;2024-02-26T07:16:47;2.20;1.00
13245;DHT22;6689;53.400;12.486;2024-02-26T07:19:14;2.30;1.00
13245;DHT22;6689;53.400;12.486;2024-02-26T07:21:41;2.40;1.00
13245;DHT22;6689;53.400;12.486;2024-02-26T07:24:08;2.50;1.00
13245;DHT22;6689;53.400;12.486;2024-02-26T07:26:36;2.60;1.00
13245;DHT22;6689;53.400;12.486;2024-02-26T07:29:03;2.70;1.00
13245;DHT22;6689;53.400;12.486;2024-02-26T07:31:33;2.80;1.00
13245;DHT22;6689;53.400;12.486;2024-02-26T07:34:00;3.00;1.00
13245;DHT22;6689;53.400;12.486;2024-02-26T07:36:27;3.10;1.00
13245;DHT22;6689;53.400;12.486;2024-02-26T07:38:54;3.20;1.00
13245;DHT22;6689;53.400;12.486;2024-02-26T07:41:21;3.50;1.00
13245;DHT22;6689;53.400;12.486;2024-02-26T07:43:48;3.80;1.00
13245;DHT22;6689;53.400;12.486;2024-02-26T07:46:15;4.20;1.00
13245;DHT22;6689;53.400;12.486;2024-02-26T07:48:44;4.40;1.00
13245;DHT22;6689;53.400;12.486;2024-02-26T07:51:12;5.00;99.90
13245;DHT22;6689;53.400;12.486;2024-02-26T07:53:41;5.30;99.90
13245;DHT22;6689;53.400;12.486;2024-02-26T07:56:09;5.70;99.90
13245;DHT22;6689;53.400;12.486;2024-02-26T07:58:38;6.70;99.90
13245;DHT22;6689;53.400;12.486;2024-02-26T08:01:05;7.80;99.90
13245;DHT22;6689;53.400;12.486;2024-02-26T08:03:33;8.50;99.90
13245;DHT22;6689;53.400;12.486;2024-02-26T08:06:02;9.00;99.90
13245;DHT22;6689;53.400;12.486;2024-02-26T08:08:29;9.50;99.90
13245;DHT22;6689;53.400;12.486;2024-02-26T08:10:56;10.10;99.90
13245;DHT22;6689;53.400;12.486;2024-02-26T08:13:24;10.60;99.90
13245;DHT22;6689;53.400;12.486;2024-02-26T08:15:52;11.40;99.90
13245;DHT22;6689;53.400;12.486;2024-02-26T08:18:20;11.30;99.90
13245;DHT22;6689;53.400;12.486;2024-02-26T08:20:47;11.70;99.90
13245;DHT22;6689;53.400;12.486;2024-02-26T08:23:17;11.70;99.90
13245;DHT22;6689;53.400;12.486;2024-02-26T08:25:46;11.90;99.90
13245;DHT22;6689;53.400;12.486;2024-02-26T08:28:13;11.60;99.90
13245;DHT22;6689;53.400;12.486;2024-02-26T08:30:43;11.40;99.90
13245;DHT22;6689;53.400;12.486;2024-02-26T08:33:10;10.70;99.90
13245;DHT22;6689;53.400;12.486;2024-02-26T08:35:37;9.90;99.90
13245;DHT22;6689;53.400;12.486;2024-02-26T08:38:04;10.40;99.90
13245;DHT22;6689;53.400;12.486;2024-02-26T08:40:33;11.00;99.90
13245;DHT22;6689;53.400;12.486;2024-02-26T08:43:00;11.40;99.90
13245;DHT22;6689;53.400;12.486;2024-02-26T08:45:27;11.70;99.90
13245;DHT22;6689;53.400;12.486;2024-02-26T08:47:54;11.70;99.90
13245;DHT22;6689;53.400;12.486;2024-02-26T08:50:20;11.40;99.90
13245;DHT22;6689;53.400;12.486;2024-02-26T08:52:47;10.50;99.90
13245;DHT22;6689;53.400;12.486;2024-02-26T08:55:16;9.40;99.90
13245;DHT22;6689;53.400;12.486;2024-02-26T08:57:45;8.60;99.90
13245;DHT22;6689;53.400;12.486;2024-02-26T09:00:12;8.40;99.90
13245;DHT22;6689;53.400;12.486;2024-02-26T09:02:41;7.70;99.90
13245;DHT22;6689;53.400;12.486;2024-02-26T09:05:09;7.30;99.90
13245;DHT22;6689;53.400;12.486;2024-02-26T09:07:37;7.10;99.90
13245;DHT22;6689;53.400;12.486;2024-02-26T09:10:05;7.00;99.90
13245;DHT22;6689;53.400;12.486;2024-02-26T09:12:34;6.90;1.00
13245;DHT22;6689;53.400;12.486;2024-02-26T09:15:02;6.90;1.00
13245;DHT22;6689;53.400;12.486;2024-02-26T09:17:30;6.80;1.00
13245;DHT22;6689;53.400;12.486;2024-02-26T09:19:57;6.80;1.00
13245;DHT22;6689;53.400;12.486;2024-02-26T09:22:24;6.70;1.00
13245;DHT22;6689;53.400;12.486;2024-02-26T09:24:54;6.60;1.00
13245;DHT22;6689;53.400;12.486;2024-02-26T09:27:21;6.70;1.00
13245;DHT22;6689;53.400;12.486;2024-02-26T09:29:49;6.60;1.00
13245;DHT22;6689;53.400;12.486;2024-02-26T09:32:18;6.60;1.00
13245;DHT22;6689;53.400;12.486;2024-02-26T09:34:45;6.60;1.00
13245;DHT22;6689;53.400;12.486;2024-02-26T09:37:12;6.60;1.00
13245;DHT22;6689;53.400;12.486;2024-02-26T09:39:43;6.70;1.00
13245;DHT22;6689;53.400;12.486;2024-02-26T09:42:11;6.70;1.00
13245;DHT22;6689;53.400;12.486;2024-02-26T09:44:40;6.70;1.00
13245;DHT22;6689;53.400;12.486;2024-02-26T09:47:10;6.90;1.00
13245;DHT22;6689;53.400;12.486;2024-02-26T09:49:40;7.00;1.00
13245;DHT22;6689;53.400;12.486;2024-02-26T09:52:09;7.00;1.00
13245;DHT22;6689;53.400;12.486;2024-02-26T09:54:37;6.90;1.00
13245;DHT22;6689;53.400;12.486;2024-02-26T09:57:07;7.30;1.00
13245;DHT22;6689;53.400;12.486;2024-02-26T09:59:43;7.10;1.00
13245;DHT22;6689;53.400;12.486;2024-02-26T10:02:13;7.30;1.00
13245;DHT22;6689;53.400;12.486;2024-02-26T10:04:45;7.40;1.00
13245;DHT22;6689;53.400;12.486;2024-02-26T10:07:19;7.40;1.00
13245;DHT22;6689;53.400;12.486;2024-02-26T10:09:48;7.50;1.00
13245;DHT22;6689;53.400;12.486;2024-02-26T10:12:18;7.60;1.00
13245;DHT22;6689;53.400;12.486;2024-02-26T10:14:46;7.50;1.00
13245;DHT22;6689;53.400;12.486;2024-02-26T10:17:14;7.60;1.00
13245;DHT22;6689;53.400;12.486;2024-02-26T10:19:43;7.70;1.00
13245;DHT22;6689;53.400;12.486;2024-02-26T10:22:14;7.70;1.00
13245;DHT22;6689;53.400;12.486;2024-02-26T10:24:46;7.80;1.00
13245;DHT22;6689;53.400;12.486;2024-02-26T10:27:15;7.90;1.00
13245;DHT22;6689;53.400;12.486;2024-02-26T10:29:44;7.90;1.00
13245;DHT22;6689;53.400;12.486;2024-02-26T10:32:13;8.00;1.00
13245;DHT22;6689;53.400;12.486;2024-02-26T10:34:45;8.10;1.00
13245;DHT22;6689;53.400;12.486;2024-02-26T10:37:15;8.20;1.00
13245;DHT22;6689;53.400;12.486;2024-02-26T10:39:47;8.30;1.00
13245;DHT22;6689;53.400;12.486;2024-02-26T10:42:14;8.40;1.00
13245;DHT22;6689;53.400;12.486;2024-02-26T10:44:43;8.50;1.00
13245;DHT22;6689;53.400;12.486;2024-02-26T10:47:11;8.50;99.90
13245;DHT22;6689;53.400;12.486;2024-02-26T10:49:47;8.50;99.90
13245;DHT22;6689;53.400;12.486;2024-02-26T10:52:15;8.60;99.90
13245;DHT22;6689;53.400;12.486;2024-02-26T10:54:47;8.50;99.90
13245;DHT22;6689;53.400;12.486;2024-02-26T10:57:18;8.50;99.90
13245;DHT22;6689;53.400;12.486;2024-02-26T10:59:45;8.60;99.90
13245;DHT22;6689;53.400;12.486;2024-02-26T11:02:13;8.70;99.90
13245;DHT22;6689;53.400;12.486;2024-02-26T11:04:41;8.80;99.90
13245;DHT22;6689;53.400;12.486;2024-02-26T11:07:11;8.60;99.90
13245;DHT22;6689;53.400;12.486;2024-02-26T11:09:39;8.80;99.90
13245;DHT22;6689;53.400;12.486;2024-02-26T11:12:10;8.80;99.90
13245;DHT22;6689;53.400;12.486;2024-02-26T11:14:40;8.80;99.90
13245;DHT22;6689;53.400;12.486;2024-02-26T11:17:07;9.00;99.90
13245;DHT22;6689;53.400;12.486;2024-02-26T11:19:36;9.40;99.90
13245;DHT22;6689;53.400;12.486;2024-02-26T11:22:04;9.00;99.90
13245;DHT22;6689;53.400;12.486;2024-02-26T11:24:33;9.10;99.90
13245;DHT22;6689;53.400;12.486;2024-02-26T11:27:02;9.10;99.90
13245;DHT22;6689;53.400;12.486;2024-02-26T11:29:34;9.20;99.90
13245;DHT22;6689;53.400;12.486;2024-02-26T11:32:05;9.30;99.90
13245;DHT22;6689;53.400;12.486;2024-02-26T11:34:33;9.40;99.90
13245;DHT22;6689;53.400;12.486;2024-02-26T11:37:09;9.30;99.90
13245;DHT22;6689;53.400;12.486;2024-02-26T11:39:39;9.30;99.90
13245;DHT22;6689;53.400;12.486;2024-02-26T11:42:08;9.10;99.90
13245;DHT22;6689;53.400;12.486;2024-02-26T11:44:36;9.60;99.90
13245;DHT22;6689;53.400;12.486;2024-02-26T11:47:10;9.60;99.90
13245;DHT22;6689;53.400;12.486;2024-02-26T11:49:38;9.60;99.90
13245;DHT22;6689;53.400;12.486;2024-02-26T11:52:06;9.60;99.90
13245;DHT22;6689;53.400;12.486;2024-02-26T11:54:46;9.80;99.90
13245;DHT22;6689;53.400;12.486;2024-02-26T11:57:21;9.80;99.90
13245;DHT22;6689;53.400;12.486;2024-02-26T11:59:48;9.90;99.90
13245;DHT22;6689;53.400;12.486;2024-02-26T12:02:41;9.80;99.90
13245;DHT22;6689;53.400;12.486;2024-02-26T12:05:11;9.80;99.90
13245;DHT22;6689;53.400;12.486;2024-02-26T12:07:40;9.90;99.90
13245;DHT22;6689;53.400;12.486;2024-02-26T12:10:26;9.80;99.90
13245;DHT22;6689;53.400;12.486;2024-02-26T12:13:15;9.40;99.90
13245;DHT22;6689;53.400;12.486;2024-02-26T12:15:55;9.90;99.90
13245;DHT22;6689;53.400;12.486;2024-02-26T12:18:23;9.90;99.90
13245;DHT22;6689;53.400;12.486;2024-02-26T12:20:58;9.80;99.90
13245;DHT22;6689;53.400;12.486;2024-02-26T12:23:27;9.80;99.90
13245;DHT22;6689;53.400;12.486;2024-02-26T12:26:00;9.80;99.90
13245;DHT22;6689;53.400;12.486;2024-02-26T12:28:31;9.90;99.90
13245;DHT22;6689;53.400;12.486;2024-02-26T12:31:01;9.90;99.90
13245;DHT22;6689;53.400;12.486;2024-02-26T12:33:30;9.90;99.90
13245;DHT22;6689;53.400;12.486;2024-02-26T12:35:58;10.10;99.90
13245;DHT22;6689;53.400;12.486;2024-02-26T12:38:26;10.10;99.90
13245;DHT22;6689;53.400;12.486;2024-02-26T12:40:55;10.20;99.90
13245;DHT22;6689;53.400;12.486;2024-02-26T12:43:24;10.00;99.90
13245;DHT22;6689;53.400;12.486;2024-02-26T12:45:53;10.00;99.90
13245;DHT22;6689;53.400;12.486;2024-02-26T12:48:21;10.10;99.90
13245;DHT22;6689;53.400;12.486;2024-02-26T12:50:49;10.10;99.90
13245;DHT22;6689;53.400;12.486;2024-02-26T12:53:16;10.20;99.90
13245;DHT22;6689;53.400;12.486;2024-02-26T12:55:44;10.20;99.90
13245;DHT22;6689;53.400;12.486;2024-02-26T12:58:12;10.30;99.90
13245;DHT22;6689;53.400;12.486;2024-02-26T13:00:42;10.20;99.90
13245;DHT22;6689;53.400;12.486;2024-02-26T13:03:10;10.30;99.90
13245;DHT22;6689;53.400;12.486;2024-02-26T13:05:37;10.40;99.90
13245;DHT22;6689;53.400;12.486;2024-02-26T13:08:05;10.30;99.90
13245;DHT22;6689;53.400;12.486;2024-02-26T13:10:34;10.20;99.90
13245;DHT22;6689;53.400;12.486;2024-02-26T13:13:02;10.50;99.90
13245;DHT22;6689;53.400;12.486;2024-02-26T13:15:29;10.50;99.90
13245;DHT22;6689;53.400;12.486;2024-02-26T13:18:09;10.30;99.90
13245;DHT22;6689;53.400;12.486;2024-02-26T13:20:38;10.50;99.90
13245;DHT22;6689;53.400;12.486;2024-02-26T13:23:08;10.40;99.90
13245;DHT22;6689;53.400;12.486;2024-02-26T13:25:36;10.60;99.90
13245;DHT22;6689;53.400;12.486;2024-02-26T13:28:07;10.60;99.90
13245;DHT22;6689;53.400;12.486;2024-02-26T13:30:35;10.70;99.90
13245;DHT22;6689;53.400;12.486;2024-02-26T13:33:12;10.30;99.90
13245;DHT22;6689;53.400;12.486;2024-02-26T13:35:40;10.40;99.90
13245;DHT22;6689;53.400;12.486;2024-02-26T13:38:10;10.60;99.90
13245;DHT22;6689;53.400;12.486;2024-02-26T13:40:38;10.50;99.90
13245;DHT22;6689;53.400;12.486;2024-02-26T13:43:05;10.30;99.90
13245;DHT22;6689;53.400;12.486;2024-02-26T13:45:34;10.20;99.90
13245;DHT22;6689;53.400;12.486;2024-02-26T13:48:04;10.30;99.90
13245;DHT22;6689;53.400;12.486;2024-02-26T13:50:33;10.50;99.90
13245;DHT22;6689;53.400;12.486;2024-02-26T13:53:01;10.60;99.90
13245;DHT22;6689;53.400;12.486;2024-02-26T13:55:30;10.60;99.90
13245;DHT22;6689;53.400;12.486;2024-02-26T13:57:58;10.60;99.90
13245;DHT22;6689;53.400;12.486;2024-02-26T14:00:27;10.50;99.90
13245;DHT22;6689;53.400;12.486;2024-02-26T14:02:55;10.50;99.90
13245;DHT22;6689;53.400;12.486;2024-02-26T14:05:22;10.40;99.90
13245;DHT22;6689;53.400;12.486;2024-02-26T14:07:53;10.40;99.90
13245;DHT22;6689;53.400;12.486;2024-02-26T14:10:20;10.40;99.90
13245;DHT22;6689;53.400;12.486;2024-02-26T14:12:48;10.40;99.90
13245;DHT22;6689;53.400;12.486;2024-02-26T14:15:15;10.50;99.90
13245;DHT22;6689;53.400;12.486;2024-02-26T14:17:42;10.50;99.90
13245;DHT22;6689;53.400;12.486;2024-02-26T14:20:11;10.40;99.90
13245;DHT22;6689;53.400;12.486;2024-02-26T14:22:40;10.40;99.90
13245;DHT22;6689;53.400;12.486;2024-02-26T14:25:17;10.40;99.90
13245;DHT22;6689;53.400;12.486;2024-02-26T14:27:44;10.40;99.90
13245;DHT22;6689;53.400;12.486;2024-02-26T14:30:12;10.40;99.90
13245;DHT22;6689;53.400;12.486;2024-02-26T14:32:40;10.40;99.90
13245;DHT22;6689;53.400;12.486;2024-02-26T14:35:09;10.30;99.90
13245;DHT22;6689;53.400;12.486;2024-02-26T14:37:36;10.40;99.90
13245;DHT22;6689;53.400;12.486;2024-02-26T14:40:06;10.40;99.90
13245;DHT22;6689;53.400;12.486;2024-02-26T14:42:35;10.40;99.90
13245;DHT22;6689;53.400;12.486;2024-02-26T14:45:03;10.40;99.90
13245;DHT22;6689;53.400;12.486;2024-02-26T14:47:35;10.40;99.90
13245;DHT22;6689;53.400;12.486;2024-02-26T14:50:03;10.40;99.90
13245;DHT22;6689;53.400;12.486;2024-02-26T14:52:31;10.60;99.90
13245;DHT22;6689;53.400;12.486;2024-02-26T14:55:00;10.40;99.90
13245;DHT22;6689;53.400;12.486;2024-02-26T14:57:29;10.40;99.90
13245;DHT22;6689;53.400;12.486;2024-02-26T14:59:59;10.30;99.90
13245;DHT22;6689;53.400;12.486;2024-02-26T15:02:31;10.40;99.90
13245;DHT22;6689;53.400;12.486;2024-02-26T15:04:58;10.20;99.90
13245;DHT22;6689;53.400;12.486;2024-02-26T15:07:27;10.30;99.90
13245;DHT22;6689;53.400;12.486;2024-02-26T15:10:03;10.30;99.90
13245;DHT22;6689;53.400;12.486;2024-02-26T15:12:33;10.30;99.90
13245;DHT22;6689;53.400;12.486;2024-02-26T15:15:02;10.30;99.90
13245;DHT22;6689;53.400;12.486;2024-02-26T15:17:31;10.30;99.90
13245;DHT22;6689;53.400;12.486;2024-02-26T15:20:01;10.30;99.90
13245;DHT22;6689;53.400;12.486;2024-02-26T15:22:30;10.30;99.90
13245;DHT22;6689;53.400;12.486;2024-02-26T15:24:58;10.10;99.90
13245;DHT22;6689;53.400;12.486;2024-02-26T15:27:25;10.10;99.90
13245;DHT22;6689;53.400;12.486;2024-02-26T15:29:52;10.10;99.90
13245;DHT22;6689;53.400;12.486;2024-02-26T15:32:25;10.10;99.90
13245;DHT22;6689;53.400;12.486;2024-02-26T15:34:54;10.00;99.90
13245;DHT22;6689;53.400;12.486;2024-02-26T15:37:22;10.10;99.90
13245;DHT22;6689;53.400;12.486;2024-02-26T15:39:51;10.00;99.90
13245;DHT22;6689;53.400;12.486;2024-02-26T15:42:18;10.00;99.90
13245;DHT22;6689;53.400;12.486;2024-02-26T15:44:54;9.90;99.90
13245;DHT22;6689;53.400;12.486;2024-02-26T15:47:23;9.90;99.90
13245;DHT22;6689;53.400;12.486;2024-02-26T15:49:52;9.80;99.90
13245;DHT22;6689;53.400;12.486;2024-02-26T15:52:20;9.80;99.90
13245;DHT22;6689;53.400;12.486;2024-02-26T15:54:47;9.70;99.90
13245;DHT22;6689;53.400;12.486;2024-02-26T15:57:14;9.70;99.90